createdAt,value
2019-03-22T00:00:33.663Z,34.63
2019-03-22T00:03:05.464Z,36.27
2019-03-22T00:05:38.162Z,32.53
2019-03-22T00:08:09.804Z,35.00
2019-03-22T00:10:41.514Z,33.67
2019-03-22T00:13:13.184Z,34.43
2019-03-22T00:15:44.863Z,35.80
2019-03-22T00:18:16.514Z,36.90
2019-03-22T00:20:48.174Z,35.70
2019-03-22T00:23:20.194Z,32.13
2019-03-22T00:25:51.954Z,32.90
2019-03-22T00:28:23.557Z,34.70
2019-03-22T00:30:55.474Z,36.53
2019-03-22T00:33:27.114Z,39.57
2019-03-22T00:35:58.896Z,42.40
2019-03-22T00:38:30.614Z,46.03
2019-03-22T00:41:02.394Z,49.77
2019-03-22T00:43:34.116Z,52.77
2019-03-22T00:46:05.994Z,49.53
2019-03-22T00:48:37.714Z,50.83
2019-03-22T00:51:13.235Z,50.33
2019-03-22T00:53:45.482Z,48.83
2019-03-22T00:56:17.314Z,46.77
2019-03-22T00:58:49.114Z,45.90
2019-03-22T01:01:24.504Z,41.77
2019-03-22T01:03:56.166Z,40.93
2019-03-22T01:06:27.914Z,35.90
2019-03-22T01:08:59.594Z,42.43
2019-03-22T01:11:31.394Z,37.37
2019-03-22T01:14:03.224Z,37.83
2019-03-22T01:16:34.924Z,38.17
2019-03-22T01:19:06.514Z,39.00
2019-03-22T01:21:38.234Z,42.30
2019-03-22T01:24:10.634Z,36.20
2019-03-22T01:26:42.394Z,38.70
2019-03-22T01:29:14.063Z,37.77
2019-03-22T01:31:45.824Z,41.90
2019-03-22T01:34:17.435Z,38.10
2019-03-22T01:36:50.414Z,40.00
2019-03-22T01:39:22.114Z,39.57
2019-03-22T01:41:53.781Z,39.47
2019-03-22T01:44:25.474Z,38.73
2019-03-22T01:46:57.204Z,36.57
2019-03-22T01:49:28.804Z,38.27
2019-03-22T01:52:01.994Z,41.63
2019-03-22T01:54:34.134Z,45.13
2019-03-22T01:57:05.775Z,43.40
2019-03-22T01:59:37.393Z,42.23
2019-03-22T02:02:09.114Z,40.97
2019-03-22T02:04:40.774Z,42.90
2019-03-22T02:07:12.594Z,44.33
2019-03-22T02:09:44.394Z,43.53
2019-03-22T02:12:16.194Z,45.90
2019-03-22T02:14:47.874Z,44.47
2019-03-22T02:17:19.544Z,45.97
2019-03-22T02:19:51.194Z,40.93
2019-03-22T02:22:22.954Z,46.10
2019-03-22T02:24:54.694Z,42.97
2019-03-22T02:27:26.544Z,45.93
2019-03-22T02:29:58.123Z,46.60
2019-03-22T02:32:29.784Z,45.97
2019-03-22T02:35:01.418Z,43.63
2019-03-22T02:37:33.124Z,48.70
2019-03-22T02:40:05.563Z,46.83
2019-03-22T02:42:37.323Z,43.37
2019-03-22T02:45:12.454Z,43.30
2019-03-22T02:47:44.197Z,44.87
2019-03-22T02:50:19.938Z,47.77
2019-03-22T02:52:49.514Z,46.30
2019-03-22T02:55:21.752Z,46.40
2019-03-22T02:57:53.515Z,45.03
2019-03-22T03:00:25.200Z,43.60
2019-03-22T03:02:56.884Z,45.87
2019-03-22T03:05:28.502Z,45.43
2019-03-22T03:08:00.204Z,49.60
2019-03-22T03:10:31.795Z,47.67
2019-03-22T03:13:03.554Z,49.37
2019-03-22T03:15:35.155Z,54.13
2019-03-22T03:18:06.915Z,55.90
2019-03-22T03:20:38.554Z,48.83
2019-03-22T03:23:10.245Z,51.77
2019-03-22T03:25:42.594Z,52.13
2019-03-22T03:28:14.396Z,48.23
2019-03-22T03:30:46.075Z,51.17
2019-03-22T03:33:17.867Z,47.97
2019-03-22T03:35:49.476Z,49.67
2019-03-22T03:38:21.421Z,52.80
2019-03-22T03:40:53.158Z,48.80
2019-03-22T03:43:28.637Z,50.67
2019-03-22T03:46:00.312Z,53.80
2019-03-22T03:48:31.985Z,56.40
2019-03-22T03:51:03.685Z,53.50
2019-03-22T03:53:41.673Z,53.30
2019-03-22T03:56:13.708Z,57.93
2019-03-22T03:58:52.635Z,54.63
2019-03-22T04:01:20.218Z,58.10
2019-03-22T04:03:51.957Z,53.60
2019-03-22T04:06:23.636Z,55.10
2019-03-22T04:08:55.424Z,59.57
2019-03-22T04:11:26.986Z,53.13
2019-03-22T04:13:58.709Z,59.10
2019-03-22T04:16:30.336Z,58.47
2019-03-22T04:19:01.996Z,58.27
2019-03-22T04:21:33.594Z,61.20
2019-03-22T04:24:05.354Z,61.60
2019-03-22T04:26:38.524Z,60.23
2019-03-22T04:29:10.243Z,61.70
2019-03-22T04:31:41.930Z,55.03
2019-03-22T04:34:13.585Z,66.97
2019-03-22T04:36:45.166Z,64.40
2019-03-22T04:39:16.824Z,60.63
2019-03-22T04:41:48.441Z,63.17
2019-03-22T04:44:20.183Z,64.50
2019-03-22T04:46:51.764Z,59.37
2019-03-22T04:49:23.434Z,63.87
2019-03-22T04:51:55.054Z,66.83
2019-03-22T04:54:33.494Z,63.67
2019-03-22T04:57:05.494Z,73.20
2019-03-22T04:59:37.275Z,72.70
2019-03-22T05:02:08.875Z,76.27
2019-03-22T05:04:40.664Z,84.33
2019-03-22T05:07:12.257Z,93.17
2019-03-22T05:09:43.962Z,108.60
2019-03-22T05:12:15.825Z,100.83
2019-03-22T05:14:47.882Z,99.07
2019-03-22T05:17:19.644Z,108.70
2019-03-22T05:19:51.844Z,118.17
2019-03-22T05:22:23.754Z,121.07
2019-03-22T05:24:55.574Z,129.57
2019-03-22T05:27:28.974Z,131.97
2019-03-22T05:30:00.774Z,126.10
2019-03-22T05:32:32.674Z,129.33
2019-03-22T05:35:07.322Z,116.17
2019-03-22T05:37:38.694Z,128.47
2019-03-22T05:40:11.726Z,110.10
2019-03-22T05:42:43.786Z,112.90
2019-03-22T05:45:15.714Z,111.53
2019-03-22T05:47:47.595Z,111.40
2019-03-22T05:50:19.452Z,107.17
2019-03-22T05:52:57.235Z,105.27
2019-03-22T05:55:29.204Z,95.20
2019-03-22T05:58:01.304Z,112.27
2019-03-22T06:00:33.004Z,100.43
2019-03-22T06:03:04.874Z,112.97
2019-03-22T06:05:36.822Z,99.00
2019-03-22T06:08:08.492Z,110.90
2019-03-22T06:10:41.516Z,101.27
2019-03-22T06:13:13.551Z,93.73
2019-03-22T06:15:45.394Z,98.93
2019-03-22T06:18:17.064Z,92.57
2019-03-22T06:20:48.775Z,88.50
2019-03-22T06:23:20.354Z,95.17
2019-03-22T06:25:52.261Z,99.47
2019-03-22T06:28:24.405Z,91.73
2019-03-22T06:30:56.226Z,99.27
2019-03-22T06:33:27.864Z,96.20
2019-03-22T06:35:59.664Z,94.70
2019-03-22T06:38:32.654Z,96.83
2019-03-22T06:41:04.744Z,91.27
2019-03-22T06:43:36.444Z,94.07
2019-03-22T06:46:08.316Z,87.30
2019-03-22T06:48:39.984Z,87.67
2019-03-22T06:51:12.224Z,81.93
2019-03-22T06:53:43.789Z,89.67
2019-03-22T06:56:19.322Z,88.37
2019-03-22T06:58:51.482Z,76.30
2019-03-22T07:01:23.322Z,80.53
2019-03-22T07:03:54.965Z,76.30
2019-03-22T07:06:26.707Z,74.90
2019-03-22T07:08:58.924Z,68.33
2019-03-22T07:11:30.784Z,68.40
2019-03-22T07:14:03.924Z,65.60
2019-03-22T07:16:35.587Z,63.73
2019-03-22T07:19:07.225Z,65.63
2019-03-22T07:21:39.044Z,62.20
2019-03-22T07:24:10.784Z,56.00
2019-03-22T07:26:42.842Z,61.90
2019-03-22T07:29:15.174Z,64.57
2019-03-22T07:31:46.914Z,58.33
2019-03-22T07:34:18.494Z,61.13
2019-03-22T07:36:50.195Z,59.40
2019-03-22T07:39:21.914Z,58.87
2019-03-22T07:41:53.644Z,54.30
2019-03-22T07:44:25.292Z,50.27
2019-03-22T07:46:57.072Z,52.70
2019-03-22T07:49:28.942Z,53.00
2019-03-22T07:52:00.644Z,51.40
2019-03-22T07:54:32.274Z,50.67
2019-03-22T07:57:10.552Z,52.03
2019-03-22T07:59:43.874Z,51.35
2019-03-22T08:02:15.725Z,45.30
2019-03-22T08:04:47.327Z,46.30
2019-03-22T08:07:19.154Z,44.03
2019-03-22T08:09:51.392Z,46.97
2019-03-22T08:12:23.354Z,40.07
2019-03-22T08:14:54.963Z,37.73
2019-03-22T08:17:26.788Z,37.30
2019-03-22T08:19:59.712Z,34.27
2019-03-22T08:22:31.458Z,34.67
2019-03-22T08:25:03.447Z,33.97
2019-03-22T08:27:38.799Z,33.50
2019-03-22T08:30:11.024Z,32.57
2019-03-22T08:32:42.770Z,30.23
2019-03-22T08:35:14.522Z,30.03
2019-03-22T08:37:52.392Z,27.23
2019-03-22T08:40:19.725Z,22.23
2019-03-22T08:42:51.497Z,27.80
2019-03-22T08:45:23.435Z,24.77
2019-03-22T08:47:55.422Z,22.17
2019-03-22T08:50:27.065Z,21.47
2019-03-22T08:53:00.184Z,20.07
2019-03-22T08:55:31.909Z,19.73
2019-03-22T08:58:05.095Z,18.40
2019-03-22T09:00:39.443Z,20.70
2019-03-22T09:03:11.120Z,17.60
2019-03-22T09:05:42.984Z,19.50
2019-03-22T09:08:16.098Z,15.00
2019-03-22T09:10:48.126Z,14.53
2019-03-22T09:13:19.765Z,14.13
2019-03-22T09:15:51.640Z,15.60
2019-03-22T09:18:23.494Z,14.47
2019-03-22T09:20:55.514Z,11.90
2019-03-22T09:23:27.605Z,7.10
2019-03-22T09:25:59.585Z,8.10
2019-03-22T09:28:31.494Z,7.60
2019-03-22T09:31:10.390Z,10.17
2019-03-22T09:33:41.299Z,7.97
2019-03-22T09:36:13.292Z,10.03
2019-03-22T09:38:45.368Z,7.30
2019-03-22T09:41:17.004Z,8.27
2019-03-22T09:43:49.034Z,9.97
2019-03-22T09:46:20.749Z,6.13
2019-03-22T09:48:53.680Z,4.67
2019-03-22T09:51:25.347Z,5.83
2019-03-22T09:53:57.547Z,8.70
2019-03-22T09:56:29.369Z,6.37
2019-03-22T09:59:04.724Z,4.83
2019-03-22T10:01:37.226Z,5.73
2019-03-22T10:04:09.364Z,5.07
2019-03-22T10:06:41.607Z,7.03
2019-03-22T10:09:13.479Z,5.00
2019-03-22T10:11:45.374Z,8.10
2019-03-22T10:14:17.410Z,4.23
2019-03-22T10:16:49.405Z,5.47
2019-03-22T10:19:21.357Z,4.07
2019-03-22T10:21:53.078Z,4.30
2019-03-22T10:24:25.199Z,6.20
2019-03-22T10:26:56.939Z,4.13
2019-03-22T10:29:28.967Z,4.93
2019-03-22T10:32:02.345Z,5.47
2019-03-22T10:34:34.295Z,3.20
2019-03-22T10:37:06.084Z,4.27
2019-03-22T10:39:38.135Z,5.07
2019-03-22T10:42:09.734Z,4.13
2019-03-22T10:44:41.904Z,4.47
2019-03-22T10:47:13.751Z,4.20
2019-03-22T10:49:45.753Z,6.13
2019-03-22T10:52:17.474Z,4.33
2019-03-22T10:54:49.547Z,5.80
2019-03-22T10:57:22.234Z,4.80
2019-03-22T10:59:58.004Z,5.70
2019-03-22T11:02:30.465Z,3.40
2019-03-22T11:05:02.516Z,5.07
2019-03-22T11:07:34.355Z,3.53
2019-03-22T11:10:07.134Z,4.70
2019-03-22T11:12:39.114Z,5.03
2019-03-22T11:15:12.005Z,4.87
2019-03-22T11:17:43.633Z,5.23
2019-03-22T11:20:15.774Z,8.57
2019-03-22T11:22:47.564Z,8.47
2019-03-22T11:25:19.605Z,4.10
2019-03-22T11:27:54.224Z,6.80
2019-03-22T11:30:25.914Z,7.03
2019-03-22T11:32:58.555Z,3.80
2019-03-22T11:35:30.592Z,4.80
2019-03-22T11:38:02.412Z,4.87
2019-03-22T11:40:40.944Z,5.70
2019-03-22T11:43:13.704Z,6.43
2019-03-22T11:45:45.398Z,5.30
2019-03-22T11:48:18.274Z,4.70
2019-03-22T11:50:50.173Z,3.47
2019-03-22T11:53:21.814Z,5.00
2019-03-22T11:55:53.534Z,6.33
2019-03-22T11:58:25.094Z,4.03
2019-03-22T12:00:59.396Z,6.67
2019-03-22T12:03:31.614Z,6.53
2019-03-22T12:06:03.716Z,5.23
2019-03-22T12:08:35.482Z,4.67
2019-03-22T12:11:07.335Z,6.50
2019-03-22T12:13:39.004Z,6.13
2019-03-22T12:16:10.922Z,5.83
2019-03-22T12:18:42.864Z,5.27
2019-03-22T12:21:14.754Z,7.70
2019-03-22T12:23:46.544Z,4.27
2019-03-22T12:26:18.415Z,5.20
2019-03-22T12:28:50.114Z,5.53
2019-03-22T12:31:22.074Z,5.00
2019-03-22T12:33:54.324Z,7.60
2019-03-22T12:36:26.154Z,3.70
2019-03-22T12:38:57.975Z,4.60
2019-03-22T12:41:29.669Z,5.70
2019-03-22T12:44:01.415Z,4.30
2019-03-22T12:46:33.074Z,5.43
2019-03-22T12:49:04.714Z,9.33
2019-03-22T12:51:36.394Z,6.43
2019-03-22T12:54:08.226Z,6.00
2019-03-22T12:56:39.953Z,4.50
2019-03-22T12:59:11.634Z,7.20
2019-03-22T13:01:46.514Z,3.70
2019-03-22T13:04:18.666Z,6.97
2019-03-22T13:06:50.585Z,6.70
2019-03-22T13:09:22.883Z,5.20
2019-03-22T13:11:54.744Z,7.90
2019-03-22T13:14:26.304Z,5.13
2019-03-22T13:16:58.014Z,5.60
2019-03-22T13:19:29.674Z,4.60
2019-03-22T13:22:01.457Z,10.47
2019-03-22T13:24:33.204Z,4.50
2019-03-22T13:27:04.934Z,7.47
2019-03-22T13:29:36.723Z,3.57
2019-03-22T13:32:08.503Z,4.80
2019-03-22T13:34:40.854Z,4.03
2019-03-22T13:37:12.594Z,4.70
2019-03-22T13:39:44.473Z,6.53
2019-03-22T13:42:16.474Z,3.60
2019-03-22T13:44:48.064Z,4.80
2019-03-22T13:47:20.313Z,4.37
2019-03-22T13:49:51.993Z,6.37
2019-03-22T13:52:23.855Z,4.23
2019-03-22T13:54:55.563Z,8.03
2019-03-22T13:57:27.516Z,7.57
2019-03-22T13:59:59.513Z,6.50
2019-03-22T14:02:31.543Z,7.27
2019-03-22T14:05:07.904Z,7.27
2019-03-22T14:07:47.074Z,5.63
2019-03-22T14:10:29.601Z,5.93
2019-03-22T14:13:02.085Z,4.50
2019-03-22T14:15:34.814Z,10.93
2019-03-22T14:18:06.703Z,10.07
2019-03-22T14:20:48.204Z,31.73
2019-03-22T14:23:20.073Z,7.57
2019-03-22T14:25:51.745Z,35.10
2019-03-22T14:28:23.613Z,63.67
2019-03-22T14:30:55.538Z,13.27
2019-03-22T14:33:27.284Z,42.67
2019-03-22T14:35:59.569Z,9.33
2019-03-22T14:38:31.415Z,7.60
2019-03-22T14:41:03.064Z,4.53
2019-03-22T14:43:35.478Z,6.03
2019-03-22T14:46:08.226Z,6.83
2019-03-22T14:48:39.934Z,4.57
2019-03-22T14:51:11.544Z,6.70
2019-03-22T14:53:43.278Z,6.50
2019-03-22T14:56:14.934Z,6.37
2019-03-22T14:58:47.884Z,8.13
2019-03-22T15:01:19.505Z,5.50
2019-03-22T15:03:52.473Z,9.27
2019-03-22T15:06:24.124Z,8.27
2019-03-22T15:08:59.509Z,10.00
2019-03-22T15:11:31.254Z,7.73
2019-03-22T15:14:23.812Z,9.10
2019-03-22T15:17:13.982Z,6.40
2019-03-22T15:20:04.358Z,9.68
2019-03-22T15:22:40.674Z,5.78
2019-03-22T15:25:19.914Z,10.83
2019-03-22T15:27:53.338Z,8.03
2019-03-22T15:30:32.966Z,8.07
2019-03-22T15:33:34.108Z,7.87
2019-03-22T15:36:00.174Z,8.47
2019-03-22T15:38:50.650Z,8.67
2019-03-22T15:41:22.884Z,9.58
2019-03-22T15:43:54.507Z,7.37
2019-03-22T15:46:26.937Z,9.70
2019-03-22T15:48:58.624Z,29.03
2019-03-22T15:51:30.434Z,12.90
2019-03-22T15:54:03.014Z,9.37
2019-03-22T15:56:34.687Z,5.90
2019-03-22T15:59:06.606Z,6.80
2019-03-22T16:01:39.004Z,7.87
2019-03-22T16:04:10.884Z,7.27
2019-03-22T16:06:42.799Z,6.63
2019-03-22T16:09:16.654Z,11.97
2019-03-22T16:11:48.454Z,9.83
2019-03-22T16:14:20.197Z,16.70
2019-03-22T16:16:53.042Z,22.90
2019-03-22T16:19:24.954Z,12.30
2019-03-22T16:21:56.806Z,9.23
2019-03-22T16:24:30.364Z,24.70
2019-03-22T16:27:02.594Z,39.57
2019-03-22T16:29:34.347Z,30.67
2019-03-22T16:32:06.129Z,10.63
2019-03-22T16:34:38.909Z,31.00
2019-03-22T16:37:12.004Z,40.17
2019-03-22T16:39:43.571Z,36.93
2019-03-22T16:42:15.344Z,33.83
2019-03-22T16:44:46.983Z,32.30
2019-03-22T16:47:20.543Z,24.90
2019-03-22T16:49:52.493Z,28.03
2019-03-22T16:52:24.346Z,33.07
2019-03-22T16:54:56.032Z,34.40
2019-03-22T16:57:27.928Z,34.17
2019-03-22T16:59:59.729Z,36.10
2019-03-22T17:02:32.639Z,33.80
2019-03-22T17:05:05.394Z,40.87
2019-03-22T17:07:37.492Z,36.77
2019-03-22T17:10:13.965Z,35.20
2019-03-22T17:12:46.024Z,38.37
2019-03-22T17:15:17.694Z,53.07
2019-03-22T17:17:49.765Z,41.97
2019-03-22T17:20:21.314Z,44.90
2019-03-22T17:22:53.190Z,61.77
2019-03-22T17:25:24.872Z,50.60
2019-03-22T17:27:56.884Z,40.07
2019-03-22T17:30:28.605Z,81.53
2019-03-22T17:33:00.632Z,87.87
2019-03-22T17:35:32.294Z,81.53
2019-03-22T17:38:04.064Z,68.53
2019-03-22T17:40:35.644Z,53.63
2019-03-22T17:43:07.634Z,98.37
2019-03-22T17:45:39.344Z,44.03
2019-03-22T17:48:11.876Z,39.65
2019-03-22T17:50:43.782Z,35.93
2019-03-22T17:53:16.652Z,48.27
2019-03-22T17:55:48.452Z,34.10
2019-03-22T17:58:21.348Z,27.57
2019-03-22T18:00:53.277Z,24.33
2019-03-22T18:03:25.040Z,26.70
2019-03-22T18:05:56.646Z,37.07
2019-03-22T18:08:28.435Z,39.80
2019-03-22T18:11:07.254Z,42.57
2019-03-22T18:13:38.915Z,46.63
2019-03-22T18:16:10.515Z,29.40
2019-03-22T18:18:43.035Z,63.80
2019-03-22T18:21:14.695Z,57.80
2019-03-22T18:23:46.395Z,49.27
2019-03-22T18:26:18.154Z,54.17
2019-03-22T18:28:50.094Z,39.93
2019-03-22T18:31:21.937Z,80.57
2019-03-22T18:33:57.214Z,44.93
2019-03-22T18:36:28.955Z,49.07
2019-03-22T18:39:00.751Z,124.00
2019-03-22T18:41:32.440Z,75.47
2019-03-22T18:44:04.094Z,140.77
2019-03-22T18:46:35.766Z,113.23
2019-03-22T18:49:07.941Z,61.50
2019-03-22T18:51:39.615Z,53.53
2019-03-22T18:54:11.479Z,62.00
2019-03-22T18:56:43.111Z,48.53
2019-03-22T18:59:14.925Z,48.00
2019-03-22T19:01:46.602Z,58.53
2019-03-22T19:04:18.434Z,65.53
2019-03-22T19:06:50.455Z,65.50
2019-03-22T19:09:22.394Z,65.23
2019-03-22T19:11:55.674Z,61.20
2019-03-22T19:14:27.315Z,59.40
2019-03-22T19:16:58.995Z,88.87
2019-03-22T19:19:31.142Z,101.20
2019-03-22T19:22:03.776Z,115.20
2019-03-22T19:24:35.495Z,174.10
2019-03-22T19:27:07.115Z,130.73
2019-03-22T19:29:38.914Z,136.90
2019-03-22T19:32:13.762Z,152.60
2019-03-22T19:34:53.911Z,173.67
2019-03-22T19:37:18.244Z,166.47
2019-03-22T19:39:50.034Z,180.60
2019-03-22T19:42:21.806Z,163.50
2019-03-22T19:44:53.534Z,124.47
2019-03-22T19:47:25.309Z,122.97
2019-03-22T19:49:57.675Z,122.80
2019-03-22T19:52:29.333Z,149.17
2019-03-22T19:55:01.052Z,154.27
2019-03-22T19:57:32.634Z,163.43
2019-03-22T20:00:05.484Z,153.13
2019-03-22T20:02:37.194Z,166.73
2019-03-22T20:05:08.875Z,170.73
2019-03-22T20:07:40.605Z,196.40
2019-03-22T20:10:12.727Z,185.67
2019-03-22T20:12:48.560Z,196.03
2019-03-22T20:15:20.407Z,171.50
2019-03-22T20:17:52.326Z,202.60
2019-03-22T20:20:27.665Z,125.93
2019-03-22T20:23:00.735Z,138.60
2019-03-22T20:25:33.864Z,114.03
2019-03-22T20:28:05.735Z,109.17
2019-03-22T20:30:37.424Z,111.13
2019-03-22T20:33:09.192Z,108.10
2019-03-22T20:35:41.085Z,119.40
2019-03-22T20:38:12.834Z,111.67
2019-03-22T20:40:44.624Z,121.17
2019-03-22T20:43:16.235Z,113.73
2019-03-22T20:45:48.006Z,143.30
2019-03-22T20:48:24.616Z,119.13
2019-03-22T20:51:14.747Z,127.27
2019-03-22T20:53:47.005Z,119.73
2019-03-22T20:56:18.704Z,121.70
2019-03-22T20:58:50.349Z,126.73
2019-03-22T21:01:22.034Z,117.10
2019-03-22T21:03:53.683Z,131.90
2019-03-22T21:06:25.644Z,123.87
2019-03-22T21:08:57.374Z,115.43
2019-03-22T21:11:29.164Z,110.60
2019-03-22T21:14:03.242Z,137.13
2019-03-22T21:16:34.953Z,137.47
2019-03-22T21:19:09.549Z,163.07
2019-03-22T21:21:41.214Z,196.13
2019-03-22T21:24:13.474Z,168.23
2019-03-22T21:26:45.284Z,138.27
2019-03-22T21:29:16.994Z,142.40
2019-03-22T21:31:48.774Z,199.30
2019-03-22T21:34:23.264Z,163.70
2019-03-22T21:36:54.986Z,154.67
2019-03-22T21:39:26.684Z,147.77
2019-03-22T21:41:58.355Z,136.30
2019-03-22T21:44:29.995Z,131.70
2019-03-22T21:47:01.756Z,140.97
2019-03-22T21:49:33.474Z,164.07
2019-03-22T21:52:05.144Z,154.90
2019-03-22T21:54:37.104Z,180.27
2019-03-22T21:57:08.774Z,153.03
2019-03-22T21:59:40.364Z,230.47
2019-03-22T22:02:12.115Z,311.83
2019-03-22T22:04:43.686Z,259.83
2019-03-22T22:07:15.384Z,263.60
2019-03-22T22:09:46.974Z,231.30
2019-03-22T22:12:18.624Z,236.97
2019-03-22T22:14:51.665Z,224.87
2019-03-22T22:17:23.334Z,212.90
2019-03-22T22:19:55.000Z,167.80
2019-03-22T22:22:26.766Z,159.83
2019-03-22T22:24:58.906Z,165.27
2019-03-22T22:27:30.794Z,173.67
2019-03-22T22:30:03.694Z,170.27
2019-03-22T22:32:35.354Z,149.40
2019-03-22T22:35:07.186Z,178.40
2019-03-22T22:37:38.874Z,168.17
2019-03-22T22:40:11.388Z,161.70
2019-03-22T22:42:43.074Z,195.30
2019-03-22T22:45:15.980Z,186.47
2019-03-22T22:47:47.774Z,168.63
2019-03-22T22:50:19.564Z,158.53
2019-03-22T22:52:51.574Z,163.63
2019-03-22T22:55:23.634Z,156.43
2019-03-22T22:57:55.304Z,181.80
2019-03-22T23:00:28.035Z,178.90
2019-03-22T23:03:01.494Z,173.73
2019-03-22T23:05:33.126Z,191.43
2019-03-22T23:08:04.924Z,201.83
2019-03-22T23:10:36.884Z,194.10
2019-03-22T23:13:08.584Z,174.33
2019-03-22T23:15:42.234Z,185.43
2019-03-22T23:18:14.077Z,214.50
2019-03-22T23:20:46.001Z,195.67
2019-03-22T23:28:30.525Z,234.43
2019-03-22T23:31:02.795Z,207.47
2019-03-22T23:33:34.532Z,225.00
2019-03-22T23:36:06.173Z,223.80
2019-03-22T23:38:37.914Z,222.20
2019-03-22T23:41:09.504Z,223.10
2019-03-22T23:43:42.242Z,215.77
2019-03-22T23:46:13.875Z,218.47
2019-03-22T23:48:45.674Z,239.47
2019-03-22T23:51:17.515Z,230.17
2019-03-22T23:53:49.234Z,230.87
2019-03-22T23:56:20.842Z,242.23
2019-03-22T23:58:52.583Z,233.23
